Time;durP1;ratioP1;P1;durP2;ratioP2;P2;SDS_P1;SDS_P2;PMS_P1;PMS_P2;Temp;Humidity;BMP_temperature;BMP_pressure;BME280_temperature;BME280_humidity;BME280_pressure;Samples;Min_cycle;Max_cycle;Signal;HPM_P1;HPM_P2
2022/05/21 16:15:38;;;;;;;4.93;1.87;;;22.10;1.00;;;;;;5015370;23;20519;-55
2022/05/21 16:18:11;;;;;;;4.13;1.90;;;22.10;1.00;;;;;;4995020;28;20448;-55
2022/05/21 16:20:41;;;;;;;2.93;2.00;;;21.60;1.00;;;;;;4995735;28;20449;-56
2022/05/21 16:23:07;;;;;;;3.03;2.37;;;20.70;1.00;;;;;;5003051;28;20452;-54
2022/05/21 16:25:33;;;;;;;2.40;2.20;;;20.70;1.00;;;;;;4998173;28;20452;-53
2022/05/21 16:27:58;;;;;;;3.23;2.67;;;20.50;1.00;;;;;;4997208;28;20818;-55
2022/05/21 16:30:24;;;;;;;6.27;2.40;;;20.20;1.00;;;;;;5000402;28;20488;-56
2022/05/21 16:32:49;;;;;;;5.47;2.30;;;20.00;1.00;;;;;;4997787;28;20572;-57
2022/05/21 16:35:15;;;;;;;3.47;2.40;;;20.10;1.00;;;;;;4999347;28;20194;-55
2022/05/21 16:37:41;;;;;;;2.30;1.93;;;20.00;1.00;;;;;;4996361;28;20279;-53
2022/05/21 16:40:09;;;;;;;4.10;2.93;;;19.90;1.00;;;;;;5002786;28;20869;-53
2022/05/21 16:42:35;;;;;;;3.53;2.40;;;19.80;1.00;;;;;;5009663;28;20197;-55
2022/05/21 16:45:00;;;;;;;6.63;2.60;;;19.90;1.00;;;;;;5007524;28;20448;-54
2022/05/21 16:47:26;;;;;;;3.23;2.43;;;19.90;1.00;;;;;;5010110;28;20443;-53
2022/05/21 16:49:52;;;;;;;2.47;2.27;;;19.80;1.00;;;;;;5002143;28;20213;-55
2022/05/21 16:52:18;;;;;;;2.50;2.30;;;19.70;1.00;;;;;;4995458;28;20226;-56
2022/05/21 16:54:45;;;;;;;5.40;3.03;;;19.70;1.00;;;;;;4991285;28;20453;-54
2022/05/21 16:57:10;;;;;;;2.77;1.83;;;19.90;1.00;;;;;;4997750;28;20201;-57
2022/05/21 16:59:37;;;;;;;2.57;2.37;;;19.70;1.00;;;;;;4996517;28;20486;-53
2022/05/21 17:02:04;;;;;;;3.60;2.37;;;19.80;1.00;;;;;;5003219;28;20720;-54
2022/05/21 17:04:29;;;;;;;2.87;2.57;;;19.70;1.00;;;;;;5010303;28;20464;-53
2022/05/21 17:06:55;;;;;;;4.00;2.63;;;19.70;1.00;;;;;;5009211;28;20477;-55
2022/05/21 17:09:21;;;;;;;3.63;2.43;;;19.60;1.00;;;;;;5009685;28;20193;-55
2022/05/21 17:11:50;;;;;;;2.33;2.20;;;19.70;1.00;;;;;;4977053;28;20229;-54
2022/05/21 17:14:18;;;;;;;3.70;2.60;;;19.70;1.00;;;;;;4989862;28;20230;-57
2022/05/21 17:16:43;;;;;;;6.07;2.70;;;19.60;1.00;;;;;;5006711;28;20972;-55
2022/05/21 17:19:09;;;;;;;5.50;2.70;;;19.60;1.00;;;;;;5008944;28;20474;-56
2022/05/21 17:21:51;;;;;;;3.47;3.00;;;19.60;1.00;;;;;;4993692;28;20194;-56
2022/05/21 17:24:17;;;;;;;2.87;2.17;;;19.60;1.00;;;;;;4994510;28;20651;-56
2022/05/21 17:26:42;;;;;;;3.63;2.80;;;19.60;1.00;;;;;;5009449;28;20506;-56
2022/05/21 17:31:52;;;;;;;2.87;2.67;;;19.30;1.00;;;;;;5009535;28;20200;-53
2022/05/21 17:34:18;;;;;;;4.10;2.70;;;19.30;1.00;;;;;;5007655;28;20432;-54
2022/05/21 17:36:43;;;;;;;3.67;2.60;;;19.20;1.00;;;;;;5000590;28;20197;-54
2022/05/21 17:39:09;;;;;;;5.73;3.73;;;19.30;1.00;;;;;;5009567;28;20228;-54
2022/05/21 17:41:35;;;;;;;5.87;3.33;;;19.40;1.00;;;;;;5008873;28;20663;-54
2022/05/21 17:44:02;;;;;;;4.40;3.37;;;19.30;1.00;;;;;;4995438;28;20198;-56
2022/05/21 17:46:27;;;;;;;3.87;3.30;;;19.20;1.00;;;;;;5002288;28;20436;-53
2022/05/21 17:48:53;;;;;;;4.13;3.40;;;19.10;1.00;;;;;;4995535;28;20433;-56
2022/05/21 17:51:19;;;;;;;3.40;2.90;;;19.00;1.00;;;;;;5002372;28;20619;-56
2022/05/21 17:53:46;;;;;;;4.43;3.10;;;19.00;1.00;;;;;;5008780;28;20543;-55
2022/05/21 17:56:15;;;;;;;8.20;3.97;;;18.90;1.00;;;;;;5001258;28;20552;-54
2022/05/21 17:58:42;;;;;;;4.93;3.07;;;18.80;1.00;;;;;;4994378;28;20846;-56
2022/05/21 18:01:24;;;;;;;5.40;3.23;;;18.80;1.00;;;;;;5004452;28;20429;-54
2022/05/21 18:03:50;;;;;;;3.50;3.20;;;18.70;1.00;;;;;;5009273;28;20870;-53
2022/05/21 18:06:17;;;;;;;3.93;3.17;;;;;;;;;;5001426;28;20456;-54
2022/05/21 18:08:43;;;;;;;4.97;3.60;;;18.80;1.00;;;;;;4999813;28;20933;-53
2022/05/21 18:11:15;;;;;;;5.30;3.73;;;18.70;1.00;;;;;;5004845;28;20546;-55
2022/05/21 18:13:41;;;;;;;3.73;2.67;;;18.60;1.00;;;;;;5010575;28;20495;-55
2022/05/21 18:19:20;;;;;;;4.23;2.90;;;18.70;1.00;;;;;;5003860;28;20453;-55
2022/05/21 18:21:49;;;;;;;3.10;2.80;;;18.70;1.00;;;;;;4993783;28;20475;-54
2022/05/21 18:24:17;;;;;;;5.20;3.27;;;18.60;1.00;;;;;;5006349;28;21182;-54
2022/05/21 18:26:42;;;;;;;4.13;3.00;;;18.60;1.00;;;;;;4999140;28;20448;-52
2022/05/21 18:29:08;;;;;;;3.93;2.77;;;18.60;1.00;;;;;;4995044;28;20460;-57
2022/05/21 18:31:34;;;;;;;4.80;3.13;;;18.70;1.00;;;;;;5008192;28;20194;-55
2022/05/21 18:34:02;;;;;;;3.93;3.20;;;18.80;1.00;;;;;;4997802;28;20202;-55
2022/05/21 18:36:29;;;;;;;5.33;3.30;;;18.70;1.00;;;;;;4999017;28;20684;-54
2022/05/21 18:38:55;;;;;;;4.87;4.00;;;18.80;1.00;;;;;;5005045;28;20468;-57
2022/05/21 18:41:30;;;;;;;3.97;3.43;;;18.80;1.00;;;;;;5013012;28;20829;-54
2022/05/21 18:44:00;;;;;;;6.00;3.50;;;18.70;1.00;;;;;;5012162;28;20267;-56
2022/05/21 18:46:29;;;;;;;3.43;3.13;;;18.50;1.00;;;;;;5002514;28;20441;-54
2022/05/21 18:48:57;;;;;;;7.00;3.67;;;18.50;1.00;;;;;;5004166;28;20452;-56
2022/05/21 18:51:23;;;;;;;6.27;3.00;;;18.50;1.00;;;;;;4998447;28;20444;-55
2022/05/21 18:53:49;;;;;;;4.13;3.10;;;18.40;1.00;;;;;;5006197;28;20449;-52
2022/05/21 18:56:42;;;;;;;4.60;3.40;;;18.40;1.00;;;;;;4997545;28;20543;-55
2022/05/21 18:59:08;;;;;;;3.27;2.97;;;18.30;1.00;;;;;;5007565;28;20476;-57
2022/05/21 19:01:37;;;;;;;4.67;3.57;;;18.40;1.00;;;;;;4998394;28;20487;-55
2022/05/21 19:04:04;;;;;;;5.80;3.57;;;18.40;1.00;;;;;;4996485;28;20876;-56
2022/05/21 19:06:29;;;;;;;3.77;3.30;;;18.40;1.00;;;;;;5000367;28;20826;-52
2022/05/21 19:08:55;;;;;;;6.47;3.23;;;18.40;1.00;;;;;;4992729;28;20448;-56
2022/05/21 19:14:57;;;;;;;4.00;3.37;;;18.50;1.00;;;;;;4990038;28;20224;-55
2022/05/21 19:17:27;;;;;;;7.10;3.30;;;18.40;1.00;;;;;;4977409;28;20437;-55
2022/05/21 19:19:52;;;;;;;4.40;3.30;;;18.30;1.00;;;;;;4999783;28;20479;-54
2022/05/21 19:22:18;;;;;;;6.73;3.70;;;18.20;1.00;;;;;;5001512;28;20533;-56
2022/05/21 19:24:44;;;;;;;3.67;3.33;;;18.30;1.00;;;;;;4996458;28;20201;-55
2022/05/21 19:27:11;;;;;;;4.33;3.80;;;18.20;1.00;;;;;;5008844;28;20198;-54
2022/05/21 19:29:37;;;;;;;6.37;3.93;;;18.30;1.00;;;;;;5000724;28;20198;-55
2022/05/21 19:32:05;;;;;;;5.03;4.40;;;18.20;1.00;;;;;;4996519;28;20452;-56
2022/05/21 19:34:31;;;;;;;4.50;4.10;;;18.20;1.00;;;;;;5010116;28;20599;-55
2022/05/21 19:36:56;;;;;;;8.23;5.87;;;18.30;1.00;;;;;;5004998;28;21009;-55
2022/05/21 19:42:14;;;;;;;6.30;4.00;;;18.10;1.00;;;;;;4999516;28;20247;-54
2022/05/21 19:44:40;;;;;;;6.43;4.00;;;18.10;1.00;;;;;;5008965;28;20447;-56
2022/05/21 19:47:06;;;;;;;6.77;4.33;;;18.10;1.00;;;;;;5009047;28;21260;-55
2022/05/21 19:49:33;;;;;;;6.00;4.33;;;18.10;1.00;;;;;;4997275;28;20452;-54
2022/05/21 19:51:58;;;;;;;14.80;4.70;;;18.10;1.00;;;;;;5001620;28;20533;-55
2022/05/21 19:54:24;;;;;;;4.27;3.90;;;17.70;1.00;;;;;;5005100;28;20449;-54
2022/05/21 19:56:52;;;;;;;4.80;4.23;;;18.00;1.00;;;;;;4998256;28;20205;-54
2022/05/21 19:59:19;;;;;;;4.70;3.87;;;18.00;1.00;;;;;;4999089;28;20217;-53
2022/05/21 20:05:16;;;;;;;6.10;4.23;;;17.90;1.00;;;;;;4982138;28;20449;-54
2022/05/21 20:07:41;;;;;;;6.43;4.20;;;18.00;1.00;;;;;;5007506;28;20479;-54
2022/05/21 20:10:08;;;;;;;8.03;4.67;;;17.90;1.00;;;;;;5008767;28;20710;-54
2022/05/21 20:12:33;;;;;;;5.43;4.93;;;17.80;1.00;;;;;;5008062;28;20480;-55
2022/05/21 20:15:00;;;;;;;5.97;4.83;;;17.80;1.00;;;;;;5004073;28;20562;-56
2022/05/21 20:17:26;;;;;;;8.23;4.30;;;17.80;1.00;;;;;;5009360;28;20205;-54
2022/05/21 20:19:51;;;;;;;6.60;4.50;;;17.90;1.00;;;;;;4989886;28;20476;-54
2022/05/21 20:22:17;;;;;;;5.13;4.50;;;17.90;1.00;;;;;;4998991;28;20532;-56
2022/05/21 20:24:42;;;;;;;5.37;4.70;;;18.00;1.00;;;;;;5002952;28;20248;-57
2022/05/21 20:27:08;;;;;;;5.57;4.90;;;18.00;1.00;;;;;;5009066;28;20555;-54
2022/05/21 20:29:35;;;;;;;9.90;4.90;;;18.10;1.00;;;;;;5007903;28;20216;-54
2022/05/21 20:32:01;;;;;;;6.10;4.50;;;18.00;1.00;;;;;;5009495;28;20301;-53
2022/05/21 20:34:27;;;;;;;5.83;4.83;;;17.80;1.00;;;;;;5008771;28;20495;-56
2022/05/21 20:36:53;;;;;;;7.03;5.07;;;17.80;1.00;;;;;;5002416;28;20460;-56
2022/05/21 20:39:19;;;;;;;4.60;4.27;;;17.70;1.00;;;;;;5003012;28;20465;-53
2022/05/21 20:41:45;;;;;;;5.20;4.70;;;17.70;1.00;;;;;;4994410;28;20583;-57
2022/05/21 20:44:11;;;;;;;5.43;4.20;;;17.60;1.00;;;;;;4992243;28;20200;-53
2022/05/21 20:46:51;;;;;;;6.50;4.77;;;17.50;1.00;;;;;;4996280;28;20193;-55
2022/05/21 20:49:35;;;;;;;5.23;4.10;;;17.40;1.00;;;;;;5005738;28;20706;-54
2022/05/21 20:52:06;;;;;;;6.03;4.47;;;17.40;1.00;;;;;;5004531;28;20456;-56
2022/05/21 20:54:33;;;;;;;5.63;4.83;;;17.50;1.00;;;;;;4998990;28;20840;-54
2022/05/21 20:56:59;;;;;;;8.77;5.30;;;17.50;1.00;;;;;;5005942;28;20460;-56
2022/05/21 20:59:24;;;;;;;4.73;4.23;;;17.60;1.00;;;;;;4997879;28;20461;-57
2022/05/21 21:02:30;;;;;;;5.40;3.97;;;17.50;1.00;;;;;;4997052;28;20710;-56
2022/05/21 21:04:56;;;;;;;10.73;4.70;;;17.50;1.00;;;;;;4947198;29;20203;-56
2022/05/21 21:07:21;;;;;;;7.10;5.23;;;17.30;1.00;;;;;;4939625;29;20435;-53
2022/05/21 21:09:47;;;;;;;10.20;5.60;;;17.30;1.00;;;;;;4965907;28;20205;-53
2022/05/21 21:12:12;;;;;;;4.60;4.20;;;17.20;1.00;;;;;;5003758;28;20255;-55
2022/05/21 21:14:38;;;;;;;6.80;5.20;;;17.30;1.00;;;;;;5003134;28;20270;-54
2022/05/21 21:17:03;;;;;;;6.53;4.73;;;17.20;1.00;;;;;;5003157;28;20194;-56
2022/05/21 21:19:29;;;;;;;6.23;4.30;;;17.20;1.00;;;;;;4995551;28;20265;-55
2022/05/21 21:22:01;;;;;;;9.73;4.77;;;17.00;1.00;;;;;;4993468;28;20218;-54
2022/05/21 21:24:26;;;;;;;5.10;4.20;;;17.00;1.00;;;;;;5003981;28;20186;-56
2022/05/21 21:26:52;;;;;;;5.07;4.60;;;17.00;1.00;;;;;;5003641;28;21198;-55
2022/05/21 21:29:18;;;;;;;5.50;4.30;;;16.80;1.00;;;;;;5006771;28;20587;-56
2022/05/21 21:31:43;;;;;;;4.87;4.10;;;16.90;1.00;;;;;;5003722;28;20213;-53
2022/05/21 21:34:09;;;;;;;6.60;4.67;;;16.80;1.00;;;;;;5008873;28;20495;-55
2022/05/21 21:36:35;;;;;;;6.00;5.00;;;16.80;1.00;;;;;;5004694;28;20197;-54
2022/05/21 21:39:03;;;;;;;5.73;4.63;;;16.70;1.00;;;;;;4996541;28;20309;-51
2022/05/21 21:41:29;;;;;;;5.73;4.40;;;16.70;1.00;;;;;;4994811;28;20437;-54
2022/05/21 21:43:54;;;;;;;5.30;4.57;;;16.60;1.00;;;;;;5006997;28;20816;-55
2022/05/21 21:46:23;;;;;;;6.10;4.33;;;16.70;1.00;;;;;;5003872;28;20444;-55
2022/05/21 21:48:48;;;;;;;7.23;4.87;;;16.70;1.00;;;;;;5002847;28;20297;-55
2022/05/21 21:51:14;;;;;;;5.07;4.40;;;16.70;1.00;;;;;;5009052;28;21033;-53
2022/05/21 21:53:39;;;;;;;6.30;5.10;;;16.70;1.00;;;;;;5004882;28;20220;-55
2022/05/21 21:56:05;;;;;;;6.37;4.30;;;16.60;1.00;;;;;;5008427;28;20200;-55
2022/05/21 22:01:27;;;;;;;4.93;4.40;;;16.40;1.00;;;;;;5010436;28;20244;-57
2022/05/21 22:03:53;;;;;;;5.27;4.47;;;16.50;1.00;;;;;;5000689;28;20554;-55
2022/05/21 22:06:20;;;;;;;5.37;4.77;;;16.50;1.00;;;;;;5006036;28;20458;-54
2022/05/21 22:08:47;;;;;;;7.20;4.67;;;16.40;1.00;;;;;;4994876;28;20452;-54
2022/05/21 22:11:31;;;;;;;5.50;4.20;;;16.40;1.00;;;;;;4992941;28;20542;-54
2022/05/21 22:13:57;;;;;;;7.90;4.77;;;16.30;1.00;;;;;;4992440;28;20997;-56
2022/05/21 22:16:32;;;;;;;6.30;4.90;;;16.30;1.00;;;;;;4994681;28;20476;-53
2022/05/21 22:18:58;;;;;;;6.37;5.27;;;16.30;1.00;;;;;;4996954;28;20467;-54
2022/05/21 22:21:25;;;;;;;10.20;5.00;;;16.30;1.00;;;;;;4994703;28;20966;-54
2022/05/21 22:23:50;;;;;;;8.33;4.97;;;16.20;1.00;;;;;;4999106;28;20276;-56
2022/05/21 22:26:26;;;;;;;5.30;4.90;;;16.20;1.00;;;;;;5010467;28;21012;-55
2022/05/21 22:28:51;;;;;;;6.67;4.97;;;16.20;1.00;;;;;;5006127;28;20535;-55
2022/05/21 22:31:18;;;;;;;6.80;5.63;;;16.20;1.00;;;;;;4990611;28;20512;-55
2022/05/21 22:33:44;;;;;;;6.50;4.70;;;16.20;1.00;;;;;;5008847;28;20279;-54
2022/05/21 22:36:22;;;;;;;6.43;4.20;;;16.10;1.00;;;;;;5002500;28;20503;-55
2022/05/21 22:38:47;;;;;;;5.37;4.73;;;16.10;1.00;;;;;;5004547;28;20999;-56
2022/05/21 22:41:19;;;;;;;8.43;5.10;;;16.10;1.00;;;;;;5011338;28;20448;-54
2022/05/21 22:43:45;;;;;;;10.07;4.60;;;15.90;1.00;;;;;;4999828;28;20202;-56
2022/05/21 22:46:20;;;;;;;6.83;4.63;;;15.80;1.00;;;;;;4996160;28;20433;-55
2022/05/21 22:48:46;;;;;;;12.33;6.00;;;15.80;1.00;;;;;;5007100;28;20189;-54
2022/05/21 22:51:15;;;;;;;6.13;4.80;;;15.70;1.00;;;;;;5009082;28;20425;-55
2022/05/21 22:53:41;;;;;;;5.47;4.50;;;15.80;1.00;;;;;;5002795;28;20189;-52
2022/05/21 22:56:08;;;;;;;7.63;4.60;;;15.80;1.00;;;;;;5002357;28;20437;-53
2022/05/21 22:58:34;;;;;;;4.53;4.10;;;15.60;1.00;;;;;;5007287;28;20563;-54
2022/05/21 23:01:00;;;;;;;6.57;5.50;;;15.60;1.00;;;;;;5008713;28;20575;-53
2022/05/21 23:03:26;;;;;;;4.90;4.30;;;15.70;1.00;;;;;;4997339;28;20200;-51
2022/05/21 23:05:52;;;;;;;5.20;4.47;;;15.70;1.00;;;;;;5007037;28;21028;-55
2022/05/21 23:08:18;;;;;;;7.77;4.70;;;15.70;1.00;;;;;;4999553;28;20485;-55
2022/05/21 23:10:43;;;;;;;4.90;3.90;;;15.70;1.00;;;;;;5005867;28;20448;-54
2022/05/21 23:13:09;;;;;;;8.13;5.00;;;15.60;1.00;;;;;;5002148;28;20292;-52
2022/05/21 23:18:23;;;;;;;5.60;4.10;;;15.60;1.00;;;;;;5000485;28;20212;-53
2022/05/21 23:20:50;;;;;;;5.77;4.40;;;15.70;1.00;;;;;;5012300;28;20950;-56
2022/05/21 23:23:18;;;;;;;5.23;4.43;;;15.70;1.00;;;;;;5005567;28;20484;-54
2022/05/21 23:25:44;;;;;;;9.27;4.93;;;15.70;1.00;;;;;;5011930;28;20519;-55
2022/05/21 23:28:11;;;;;;;7.40;4.87;;;;;;;;;;5007136;28;21154;-55
2022/05/21 23:30:37;;;;;;;4.87;4.37;;;15.80;1.00;;;;;;5012213;28;20273;-55
2022/05/21 23:33:03;;;;;;;7.57;4.73;;;15.70;1.00;;;;;;4994103;28;20560;-54
2022/05/21 23:35:28;;;;;;;8.30;4.60;;;15.70;1.00;;;;;;5005607;28;20213;-55
2022/05/21 23:37:54;;;;;;;5.70;4.70;;;15.70;1.00;;;;;;4998286;28;20247;-54
2022/05/21 23:40:20;;;;;;;7.10;4.43;;;15.70;1.00;;;;;;5007295;28;20221;-54
2022/05/21 23:42:45;;;;;;;5.00;4.10;;;15.70;1.00;;;;;;5005999;28;20550;-54
2022/05/21 23:45:11;;;;;;;11.50;4.50;;;15.70;1.00;;;;;;4994102;28;20232;-54
2022/05/21 23:47:36;;;;;;;5.43;4.33;;;15.70;1.00;;;;;;5006223;28;20205;-54
2022/05/21 23:50:04;;;;;;;6.60;4.40;;;15.60;1.00;;;;;;5009118;28;20189;-55
2022/05/21 23:52:30;;;;;;;5.97;4.20;;;15.50;1.00;;;;;;5003976;28;20560;-55
2022/05/21 23:54:55;;;;;;;5.33;4.77;;;15.40;1.00;;;;;;4990401;28;20455;-56
2022/05/21 23:57:21;;;;;;;7.33;4.57;;;15.40;1.00;;;;;;5008386;28;20294;-54
2022/05/21 23:59:46;;;;;;;7.80;4.87;;;15.50;1.00;;;;;;5007706;28;20232;-53
